Meteo Giornale » Osservazioni meteo Italia » Milano-Malpensa

ore: 02:50 - Osservazioni Meteo Milano-Malpensa
Lat. 45° 37' N Lon. 8° 44' E Alt. 234 metri s.l.m.

sereno Europe/Rome

-4 °C

Sereno

Temp. 24 Ore

-4 °C

10 °C

Nord

5.5 Km/h

Dew point -7 °C

Umidità 79 %

Visibilità  10 Km

Il sole sorge alle ore 07:57

Il sole tramonta alle ore 17:13

Data e Ora Cielo e Fenomeni T °C DP °C Um. % Pres. hPa Vis. km Vento km/h
Oggi h: 02:50 sereno Sereno -4 -7 79 1016 10 N 5.5
Oggi h: 02:20 sereno Sereno -2 -5 79 1015 10 N 3.7
Oggi h: 01:50 sereno Sereno -1 -4 80 1015 10 N 3.7
Oggi h: 01:20 sereno Sereno -2 -4 86 1015 10 N 3.7
Oggi h: 00:50 sereno Sereno 0 -3 80 1016 10 SO 9.3
Oggi h: 00:20 sereno Sereno 0 -4 74 1015 10 N 13
Ieri h: 23:50 sereno Sereno -1 -4 80 1015 10 N 16.7
Ieri h: 23:20 sereno Sereno -1 -4 80 1015 10 N/NE 13
Ieri h: 22:50 sereno Sereno -3 -5 86 1015 10 N/NE 9.3
Ieri h: 22:20 sereno Sereno -2 -3 92 1015 10 N 11.1
Ieri h: 21:50 sereno Sereno -1 -5 74 1015 10 N 3.7
Ieri h: 21:20 sereno Sereno -1 -4 80 1014 10 N/NE 7.4
Ieri h: 20:50 sereno Sereno 1 -3 74 1014 10 N 5.5
Ieri h: 20:20 sereno Sereno -1 -4 80 1013 10 N/NE 9.3
Ieri h: 19:50 sereno Sereno -1 -4 80 1013 10 N 7.4
Ieri h: 19:20 sereno Sereno 1 -4 69 1012 10 N 3.7
Ieri h: 18:50 sereno Sereno 2 -4 64 1012 10 N 3.7
Ieri h: 18:20 sereno Sereno 2 -3 69 1012 10 N 5.5
Ieri h: 17:50 sereno Sereno 4 -3 60 1011 10 N/NO 11.1
Ieri h: 17:20 sereno Sereno 4 -4 55 1011 10 N/NE 13
Ieri h: 16:50 sereno Sereno 7 -4 45 1010 10 NO 9.3
Ieri h: 16:20 sereno Sereno 5 -3 56 1010 10 N 9.3
Ieri h: 15:50 sereno Sereno 7 -4 45 1009 10 N 14.8
Ieri h: 15:20 nuvoloso Nuvoloso 8 -5 39 1009 10 N/NE 29.6
Ieri h: 14:20 poco_nuvoloso Poco Nuvoloso 10 10 100 1006 10 N 11.1
Ieri h: 13:50 poco_nuvoloso Poco Nuvoloso 10 10 100 1006 10 N 7.4
Ieri h: 13:20 nuvoloso Nuvoloso 9 9 100 1006 10 N 7.4
Ieri h: 12:50 nuvoloso Nuvoloso 8 8 100 1005 10 N 1.8
Ieri h: 12:20 poco_nuvoloso Poco Nuvoloso 7 7 100 1005 10 N 5.5
Ieri h: 11:50 sereno Sereno 7 7 100 1004 10 N 3.7
Ieri h: 11:20 sereno Sereno 6 6 100 1004 10 S 7.4
Ieri h: 10:50 poco_nuvoloso Poco Nuvoloso 4 4 100 1004 10 E/SE 7.4
Ieri h: 10:20 nuvoloso Nuvoloso 4 4 100 1003 6 N 3.7
Ieri h: 09:50 foschia Foschia 2 2 100 1003 4 N 13
Ieri h: 09:20 foschia Foschia 1 1 100 1002 3 NO 11.1
Ieri h: 08:50 foschia Foschia 1 1 100 1001 1 N 5.5
Ieri h: 08:20 nebbia Nebbia 1 1 100 1001 0.35 N 7.4
Ieri h: 07:50 nebbia Nebbia 1 1 100 1000 0.15 SO 11.1
Ieri h: 07:20 nebbia Nebbia 0 0 100 1000 0.15 O/SO 9.3
Ieri h: 06:50 nebbia Nebbia 0 0 100 1000 0.1 O/SO 9.3
Ieri h: 06:20 nebbia Nebbia 0 0 100 999 0.1 N 5.5
Ieri h: 05:50 nebbia Nebbia 1 1 100 999 0.1 N 5.5
Ieri h: 05:20 nebbia Nebbia 1 1 100 1000 0.1 N 5.5
Ieri h: 04:50 nebbia Nebbia 1 1 100 999 0.1 NE 7.4
Ieri h: 04:20 nebbia Nebbia 1 1 100 1000 0.1 N 3.7
Ieri h: 03:50 nebbia Nebbia 1 1 100 1000 0.1 E/NE 7.4
Ieri h: 03:20 nebbia Nebbia 1 1 100 1000 0.1 N 5.5
Ieri h: 02:50 nebbia Nebbia 1 1 100 1000 0.1 N 5.5